sensor_id;sensor_type;location;lat;lon;timestamp;P1;durP1;ratioP1;P2;durP2;ratioP2
14760;SDS011;7472;45.396;5.272;2022-10-16T00:01:22;7.43;;;4.35;;
14760;SDS011;7472;45.396;5.272;2022-10-16T00:03:50;5.50;;;3.97;;
14760;SDS011;7472;45.396;5.272;2022-10-16T00:06:20;7.10;;;4.28;;
14760;SDS011;7472;45.396;5.272;2022-10-16T00:08:48;8.27;;;4.13;;
14760;SDS011;7472;45.396;5.272;2022-10-16T00:11:17;4.75;;;4.28;;
14760;SDS011;7472;45.396;5.272;2022-10-16T00:13:45;7.78;;;3.85;;
14760;SDS011;7472;45.396;5.272;2022-10-16T00:16:13;5.80;;;3.45;;
14760;SDS011;7472;45.396;5.272;2022-10-16T00:18:41;4.05;;;3.40;;
14760;SDS011;7472;45.396;5.272;2022-10-16T00:21:09;4.60;;;3.60;;
14760;SDS011;7472;45.396;5.272;2022-10-16T00:23:38;4.03;;;3.60;;
14760;SDS011;7472;45.396;5.272;2022-10-16T00:26:06;8.48;;;4.35;;
14760;SDS011;7472;45.396;5.272;2022-10-16T00:28:34;3.95;;;3.60;;
14760;SDS011;7472;45.396;5.272;2022-10-16T00:31:03;7.10;;;3.92;;
14760;SDS011;7472;45.396;5.272;2022-10-16T00:33:30;4.95;;;4.05;;
14760;SDS011;7472;45.396;5.272;2022-10-16T00:35:58;5.00;;;4.03;;
14760;SDS011;7472;45.396;5.272;2022-10-16T00:38:25;4.30;;;3.95;;
14760;SDS011;7472;45.396;5.272;2022-10-16T00:40:54;5.63;;;4.10;;
14760;SDS011;7472;45.396;5.272;2022-10-16T00:43:35;5.00;;;4.40;;
14760;SDS011;7472;45.396;5.272;2022-10-16T00:46:04;7.45;;;4.40;;
14760;SDS011;7472;45.396;5.272;2022-10-16T00:48:32;6.32;;;4.40;;
14760;SDS011;7472;45.396;5.272;2022-10-16T00:50:59;5.45;;;4.10;;
14760;SDS011;7472;45.396;5.272;2022-10-16T00:53:27;5.05;;;4.40;;
14760;SDS011;7472;45.396;5.272;2022-10-16T00:55:56;4.80;;;4.22;;
14760;SDS011;7472;45.396;5.272;2022-10-16T00:58:23;5.53;;;4.85;;
14760;SDS011;7472;45.396;5.272;2022-10-16T01:00:50;7.38;;;5.28;;
14760;SDS011;7472;45.396;5.272;2022-10-16T01:03:25;5.15;;;4.65;;
14760;SDS011;7472;45.396;5.272;2022-10-16T01:05:55;5.32;;;4.70;;
14760;SDS011;7472;45.396;5.272;2022-10-16T01:08:27;9.05;;;4.57;;
14760;SDS011;7472;45.396;5.272;2022-10-16T01:10:59;8.88;;;4.82;;
14760;SDS011;7472;45.396;5.272;2022-10-16T01:13:31;11.25;;;5.32;;
14760;SDS011;7472;45.396;5.272;2022-10-16T01:16:03;7.65;;;4.70;;
14760;SDS011;7472;45.396;5.272;2022-10-16T01:18:33;7.25;;;5.20;;
14760;SDS011;7472;45.396;5.272;2022-10-16T01:21:02;5.68;;;5.05;;
14760;SDS011;7472;45.396;5.272;2022-10-16T01:23:36;7.05;;;5.18;;
14760;SDS011;7472;45.396;5.272;2022-10-16T01:26:17;5.72;;;5.22;;
14760;SDS011;7472;45.396;5.272;2022-10-16T01:28:49;8.20;;;4.63;;
14760;SDS011;7472;45.396;5.272;2022-10-16T01:31:19;7.65;;;5.85;;
14760;SDS011;7472;45.396;5.272;2022-10-16T01:33:51;8.52;;;5.63;;
14760;SDS011;7472;45.396;5.272;2022-10-16T01:36:21;9.05;;;5.50;;
14760;SDS011;7472;45.396;5.272;2022-10-16T01:38:49;7.22;;;5.50;;
14760;SDS011;7472;45.396;5.272;2022-10-16T01:41:18;6.45;;;5.45;;
14760;SDS011;7472;45.396;5.272;2022-10-16T01:43:49;8.10;;;5.32;;
14760;SDS011;7472;45.396;5.272;2022-10-16T01:46:20;6.40;;;5.80;;
14760;SDS011;7472;45.396;5.272;2022-10-16T01:48:48;6.85;;;5.97;;
14760;SDS011;7472;45.396;5.272;2022-10-16T01:51:16;7.60;;;5.90;;
14760;SDS011;7472;45.396;5.272;2022-10-16T01:53:46;9.63;;;5.35;;
14760;SDS011;7472;45.396;5.272;2022-10-16T01:56:14;7.82;;;6.57;;
14760;SDS011;7472;45.396;5.272;2022-10-16T01:58:43;10.15;;;6.07;;
14760;SDS011;7472;45.396;5.272;2022-10-16T02:01:13;7.38;;;5.93;;
14760;SDS011;7472;45.396;5.272;2022-10-16T02:03:43;8.63;;;6.35;;
14760;SDS011;7472;45.396;5.272;2022-10-16T02:06:11;6.93;;;6.13;;
14760;SDS011;7472;45.396;5.272;2022-10-16T02:08:39;9.68;;;6.68;;
14760;SDS011;7472;45.396;5.272;2022-10-16T02:11:09;9.00;;;6.15;;
14760;SDS011;7472;45.396;5.272;2022-10-16T02:13:37;8.32;;;6.90;;
14760;SDS011;7472;45.396;5.272;2022-10-16T02:16:06;9.32;;;6.78;;
14760;SDS011;7472;45.396;5.272;2022-10-16T02:18:35;8.32;;;6.22;;
14760;SDS011;7472;45.396;5.272;2022-10-16T02:21:04;9.25;;;6.80;;
14760;SDS011;7472;45.396;5.272;2022-10-16T02:23:34;8.07;;;6.55;;
14760;SDS011;7472;45.396;5.272;2022-10-16T02:26:03;8.25;;;6.80;;
14760;SDS011;7472;45.396;5.272;2022-10-16T02:28:33;7.55;;;6.80;;
14760;SDS011;7472;45.396;5.272;2022-10-16T02:31:03;6.85;;;6.10;;
14760;SDS011;7472;45.396;5.272;2022-10-16T02:33:31;13.23;;;6.95;;
14760;SDS011;7472;45.396;5.272;2022-10-16T02:36:00;13.27;;;7.30;;
14760;SDS011;7472;45.396;5.272;2022-10-16T02:38:28;9.73;;;6.15;;
14760;SDS011;7472;45.396;5.272;2022-10-16T02:40:56;10.93;;;7.25;;
14760;SDS011;7472;45.396;5.272;2022-10-16T02:43:24;10.45;;;6.43;;
14760;SDS011;7472;45.396;5.272;2022-10-16T02:45:52;10.75;;;6.90;;
14760;SDS011;7472;45.396;5.272;2022-10-16T02:48:19;9.98;;;7.20;;
14760;SDS011;7472;45.396;5.272;2022-10-16T02:50:46;8.52;;;7.10;;
14760;SDS011;7472;45.396;5.272;2022-10-16T02:53:15;14.43;;;7.65;;
14760;SDS011;7472;45.396;5.272;2022-10-16T02:55:42;10.30;;;7.50;;
14760;SDS011;7472;45.396;5.272;2022-10-16T02:58:10;9.20;;;7.45;;
14760;SDS011;7472;45.396;5.272;2022-10-16T03:00:37;8.88;;;6.90;;
14760;SDS011;7472;45.396;5.272;2022-10-16T03:03:04;10.52;;;7.03;;
14760;SDS011;7472;45.396;5.272;2022-10-16T03:05:32;8.70;;;6.72;;
14760;SDS011;7472;45.396;5.272;2022-10-16T03:07:59;10.40;;;6.88;;
14760;SDS011;7472;45.396;5.272;2022-10-16T03:10:28;10.13;;;7.05;;
14760;SDS011;7472;45.396;5.272;2022-10-16T03:12:55;10.48;;;7.13;;
14760;SDS011;7472;45.396;5.272;2022-10-16T03:15:23;8.32;;;7.28;;
14760;SDS011;7472;45.396;5.272;2022-10-16T03:17:51;11.00;;;7.30;;
14760;SDS011;7472;45.396;5.272;2022-10-16T03:20:18;9.52;;;7.68;;
14760;SDS011;7472;45.396;5.272;2022-10-16T03:22:45;9.88;;;8.13;;
14760;SDS011;7472;45.396;5.272;2022-10-16T03:25:13;10.52;;;7.07;;
14760;SDS011;7472;45.396;5.272;2022-10-16T03:27:41;9.70;;;8.07;;
14760;SDS011;7472;45.396;5.272;2022-10-16T03:30:09;11.15;;;7.57;;
14760;SDS011;7472;45.396;5.272;2022-10-16T03:32:36;10.32;;;7.78;;
14760;SDS011;7472;45.396;5.272;2022-10-16T03:35:04;11.05;;;8.18;;
14760;SDS011;7472;45.396;5.272;2022-10-16T03:37:32;12.88;;;8.60;;
14760;SDS011;7472;45.396;5.272;2022-10-16T03:39:59;9.35;;;8.10;;
14760;SDS011;7472;45.396;5.272;2022-10-16T03:42:26;11.18;;;7.90;;
14760;SDS011;7472;45.396;5.272;2022-10-16T03:44:55;11.65;;;9.18;;
14760;SDS011;7472;45.396;5.272;2022-10-16T03:47:22;13.80;;;9.60;;
14760;SDS011;7472;45.396;5.272;2022-10-16T03:49:50;14.43;;;9.15;;
14760;SDS011;7472;45.396;5.272;2022-10-16T03:52:17;12.25;;;9.90;;
14760;SDS011;7472;45.396;5.272;2022-10-16T03:54:44;14.60;;;10.00;;
14760;SDS011;7472;45.396;5.272;2022-10-16T03:57:12;14.85;;;10.90;;
14760;SDS011;7472;45.396;5.272;2022-10-16T03:59:39;15.13;;;10.95;;
14760;SDS011;7472;45.396;5.272;2022-10-16T04:02:08;16.15;;;10.95;;
14760;SDS011;7472;45.396;5.272;2022-10-16T04:04:35;12.88;;;11.52;;
14760;SDS011;7472;45.396;5.272;2022-10-16T04:07:02;16.45;;;11.48;;
14760;SDS011;7472;45.396;5.272;2022-10-16T04:09:30;18.13;;;12.65;;
14760;SDS011;7472;45.396;5.272;2022-10-16T04:11:57;17.17;;;11.70;;
14760;SDS011;7472;45.396;5.272;2022-10-16T04:14:24;16.50;;;11.63;;
14760;SDS011;7472;45.396;5.272;2022-10-16T04:16:52;13.90;;;12.15;;
14760;SDS011;7472;45.396;5.272;2022-10-16T04:19:21;13.45;;;11.68;;
14760;SDS011;7472;45.396;5.272;2022-10-16T04:21:48;19.52;;;11.90;;
14760;SDS011;7472;45.396;5.272;2022-10-16T04:24:15;14.60;;;12.00;;
14760;SDS011;7472;45.396;5.272;2022-10-16T04:26:43;17.73;;;12.13;;
14760;SDS011;7472;45.396;5.272;2022-10-16T04:29:10;16.10;;;12.35;;
14760;SDS011;7472;45.396;5.272;2022-10-16T04:31:37;13.93;;;11.57;;
14760;SDS011;7472;45.396;5.272;2022-10-16T04:34:05;14.98;;;12.40;;
14760;SDS011;7472;45.396;5.272;2022-10-16T04:36:33;12.77;;;11.45;;
14760;SDS011;7472;45.396;5.272;2022-10-16T04:39:01;17.65;;;11.57;;
14760;SDS011;7472;45.396;5.272;2022-10-16T04:41:28;15.07;;;11.68;;
14760;SDS011;7472;45.396;5.272;2022-10-16T04:43:55;13.85;;;11.65;;
14760;SDS011;7472;45.396;5.272;2022-10-16T04:46:23;13.90;;;12.30;;
14760;SDS011;7472;45.396;5.272;2022-10-16T04:48:50;14.77;;;11.88;;
14760;SDS011;7472;45.396;5.272;2022-10-16T04:51:19;14.68;;;11.52;;
14760;SDS011;7472;45.396;5.272;2022-10-16T04:53:47;14.60;;;11.80;;
14760;SDS011;7472;45.396;5.272;2022-10-16T04:56:15;16.73;;;11.35;;
14760;SDS011;7472;45.396;5.272;2022-10-16T04:58:42;12.40;;;11.05;;
14760;SDS011;7472;45.396;5.272;2022-10-16T05:01:09;13.77;;;11.05;;
14760;SDS011;7472;45.396;5.272;2022-10-16T05:03:37;14.38;;;11.20;;
14760;SDS011;7472;45.396;5.272;2022-10-16T05:06:04;13.55;;;10.88;;
14760;SDS011;7472;45.396;5.272;2022-10-16T05:08:32;14.85;;;10.70;;
14760;SDS011;7472;45.396;5.272;2022-10-16T05:11:01;12.65;;;10.55;;
14760;SDS011;7472;45.396;5.272;2022-10-16T05:13:28;15.57;;;10.02;;
14760;SDS011;7472;45.396;5.272;2022-10-16T05:15:55;13.05;;;10.18;;
14760;SDS011;7472;45.396;5.272;2022-10-16T05:18:23;11.85;;;9.07;;
14760;SDS011;7472;45.396;5.272;2022-10-16T05:20:50;12.48;;;9.88;;
14760;SDS011;7472;45.396;5.272;2022-10-16T05:23:18;9.77;;;8.82;;
14760;SDS011;7472;45.396;5.272;2022-10-16T05:25:51;11.80;;;8.70;;
14760;SDS011;7472;45.396;5.272;2022-10-16T05:28:21;13.95;;;9.02;;
14760;SDS011;7472;45.396;5.272;2022-10-16T05:30:48;10.40;;;8.10;;
14760;SDS011;7472;45.396;5.272;2022-10-16T05:33:15;12.82;;;9.88;;
14760;SDS011;7472;45.396;5.272;2022-10-16T05:35:43;11.80;;;9.43;;
14760;SDS011;7472;45.396;5.272;2022-10-16T05:38:10;13.77;;;9.45;;
14760;SDS011;7472;45.396;5.272;2022-10-16T05:40:37;12.75;;;9.55;;
14760;SDS011;7472;45.396;5.272;2022-10-16T05:43:05;10.00;;;9.07;;
14760;SDS011;7472;45.396;5.272;2022-10-16T05:45:34;15.10;;;8.55;;
14760;SDS011;7472;45.396;5.272;2022-10-16T05:48:01;11.68;;;8.05;;
14760;SDS011;7472;45.396;5.272;2022-10-16T05:50:28;12.18;;;8.65;;
14760;SDS011;7472;45.396;5.272;2022-10-16T05:52:56;11.82;;;8.18;;
14760;SDS011;7472;45.396;5.272;2022-10-16T05:55:24;14.45;;;8.45;;
14760;SDS011;7472;45.396;5.272;2022-10-16T05:57:53;14.38;;;9.88;;
14760;SDS011;7472;45.396;5.272;2022-10-16T06:00:21;12.20;;;9.10;;
14760;SDS011;7472;45.396;5.272;2022-10-16T06:02:49;12.48;;;11.05;;
14760;SDS011;7472;45.396;5.272;2022-10-16T06:05:17;12.40;;;11.07;;
14760;SDS011;7472;45.396;5.272;2022-10-16T06:07:44;14.10;;;11.75;;
14760;SDS011;7472;45.396;5.272;2022-10-16T06:10:11;12.93;;;9.52;;
14760;SDS011;7472;45.396;5.272;2022-10-16T06:12:39;12.80;;;10.70;;
14760;SDS011;7472;45.396;5.272;2022-10-16T06:15:07;13.57;;;11.40;;
14760;SDS011;7472;45.396;5.272;2022-10-16T06:17:34;11.32;;;9.93;;
14760;SDS011;7472;45.396;5.272;2022-10-16T06:20:03;15.68;;;11.23;;
14760;SDS011;7472;45.396;5.272;2022-10-16T06:22:31;11.98;;;9.63;;
14760;SDS011;7472;45.396;5.272;2022-10-16T06:24:58;15.00;;;10.60;;
14760;SDS011;7472;45.396;5.272;2022-10-16T06:27:26;11.82;;;9.93;;
14760;SDS011;7472;45.396;5.272;2022-10-16T06:29:53;12.35;;;9.90;;
14760;SDS011;7472;45.396;5.272;2022-10-16T06:32:21;9.90;;;8.68;;
14760;SDS011;7472;45.396;5.272;2022-10-16T06:34:48;10.68;;;8.93;;
14760;SDS011;7472;45.396;5.272;2022-10-16T06:37:17;12.88;;;8.77;;
14760;SDS011;7472;45.396;5.272;2022-10-16T06:39:44;11.68;;;8.32;;
14760;SDS011;7472;45.396;5.272;2022-10-16T06:42:11;10.30;;;9.20;;
14760;SDS011;7472;45.396;5.272;2022-10-16T06:44:39;10.73;;;8.70;;
14760;SDS011;7472;45.396;5.272;2022-10-16T06:47:06;10.35;;;9.18;;
14760;SDS011;7472;45.396;5.272;2022-10-16T06:49:33;9.90;;;8.55;;
14760;SDS011;7472;45.396;5.272;2022-10-16T06:52:01;12.50;;;9.30;;
14760;SDS011;7472;45.396;5.272;2022-10-16T06:54:30;8.75;;;7.88;;
14760;SDS011;7472;45.396;5.272;2022-10-16T06:56:57;9.75;;;7.28;;
14760;SDS011;7472;45.396;5.272;2022-10-16T06:59:25;11.95;;;7.60;;
14760;SDS011;7472;45.396;5.272;2022-10-16T07:01:52;10.68;;;7.50;;
14760;SDS011;7472;45.396;5.272;2022-10-16T07:04:20;10.75;;;6.65;;
14760;SDS011;7472;45.396;5.272;2022-10-16T07:06:47;9.20;;;7.60;;
14760;SDS011;7472;45.396;5.272;2022-10-16T07:09:14;8.80;;;7.15;;
14760;SDS011;7472;45.396;5.272;2022-10-16T07:11:43;8.68;;;6.22;;
14760;SDS011;7472;45.396;5.272;2022-10-16T07:14:12;8.30;;;6.53;;
14760;SDS011;7472;45.396;5.272;2022-10-16T07:16:41;7.55;;;6.38;;
14760;SDS011;7472;45.396;5.272;2022-10-16T07:19:09;9.30;;;6.40;;
14760;SDS011;7472;45.396;5.272;2022-10-16T07:21:38;8.07;;;5.18;;
14760;SDS011;7472;45.396;5.272;2022-10-16T07:24:06;6.90;;;5.50;;
14760;SDS011;7472;45.396;5.272;2022-10-16T07:26:34;6.60;;;6.00;;
14760;SDS011;7472;45.396;5.272;2022-10-16T07:29:05;6.40;;;5.30;;
14760;SDS011;7472;45.396;5.272;2022-10-16T07:31:33;9.43;;;5.68;;
14760;SDS011;7472;45.396;5.272;2022-10-16T07:34:00;7.70;;;5.00;;
14760;SDS011;7472;45.396;5.272;2022-10-16T07:36:28;10.07;;;6.07;;
14760;SDS011;7472;45.396;5.272;2022-10-16T07:38:55;7.88;;;5.70;;
14760;SDS011;7472;45.396;5.272;2022-10-16T07:41:22;6.55;;;5.35;;
14760;SDS011;7472;45.396;5.272;2022-10-16T07:43:51;6.32;;;4.80;;
14760;SDS011;7472;45.396;5.272;2022-10-16T07:46:21;6.18;;;5.18;;
14760;SDS011;7472;45.396;5.272;2022-10-16T07:48:49;5.28;;;4.75;;
14760;SDS011;7472;45.396;5.272;2022-10-16T07:51:17;5.13;;;4.63;;
14760;SDS011;7472;45.396;5.272;2022-10-16T07:53:44;5.10;;;4.53;;
14760;SDS011;7472;45.396;5.272;2022-10-16T07:56:13;7.07;;;3.78;;
14760;SDS011;7472;45.396;5.272;2022-10-16T07:58:41;4.13;;;3.58;;
14760;SDS011;7472;45.396;5.272;2022-10-16T08:01:09;6.50;;;3.92;;
14760;SDS011;7472;45.396;5.272;2022-10-16T08:03:38;7.60;;;3.92;;
14760;SDS011;7472;45.396;5.272;2022-10-16T08:06:05;6.28;;;4.10;;
14760;SDS011;7472;45.396;5.272;2022-10-16T08:08:33;5.28;;;4.18;;
14760;SDS011;7472;45.396;5.272;2022-10-16T08:11:00;6.00;;;3.97;;
14760;SDS011;7472;45.396;5.272;2022-10-16T08:13:28;7.13;;;3.63;;
14760;SDS011;7472;45.396;5.272;2022-10-16T08:15:56;7.18;;;3.55;;
14760;SDS011;7472;45.396;5.272;2022-10-16T08:18:23;5.13;;;3.47;;
14760;SDS011;7472;45.396;5.272;2022-10-16T08:20:56;6.47;;;3.50;;
14760;SDS011;7472;45.396;5.272;2022-10-16T08:23:24;8.95;;;3.67;;
14760;SDS011;7472;45.396;5.272;2022-10-16T08:25:52;5.05;;;3.42;;
14760;SDS011;7472;45.396;5.272;2022-10-16T08:28:19;4.10;;;3.70;;
14760;SDS011;7472;45.396;5.272;2022-10-16T08:30:47;7.28;;;3.70;;
14760;SDS011;7472;45.396;5.272;2022-10-16T08:33:14;6.57;;;3.67;;
14760;SDS011;7472;45.396;5.272;2022-10-16T08:35:42;6.50;;;3.22;;
14760;SDS011;7472;45.396;5.272;2022-10-16T08:38:11;7.10;;;3.88;;
14760;SDS011;7472;45.396;5.272;2022-10-16T08:40:41;4.15;;;3.70;;
14760;SDS011;7472;45.396;5.272;2022-10-16T08:43:16;5.15;;;3.50;;
14760;SDS011;7472;45.396;5.272;2022-10-16T08:45:52;7.95;;;3.78;;
14760;SDS011;7472;45.396;5.272;2022-10-16T08:48:27;5.18;;;3.53;;
14760;SDS011;7472;45.396;5.272;2022-10-16T08:50:56;7.97;;;3.70;;
14760;SDS011;7472;45.396;5.272;2022-10-16T08:53:26;4.72;;;3.30;;
14760;SDS011;7472;45.396;5.272;2022-10-16T08:55:55;3.30;;;2.92;;
14760;SDS011;7472;45.396;5.272;2022-10-16T08:58:26;4.50;;;2.97;;
14760;SDS011;7472;45.396;5.272;2022-10-16T09:00:54;6.63;;;3.58;;
14760;SDS011;7472;45.396;5.272;2022-10-16T09:03:24;3.25;;;2.70;;
14760;SDS011;7472;45.396;5.272;2022-10-16T09:06:17;4.05;;;2.88;;
14760;SDS011;7472;45.396;5.272;2022-10-16T09:08:51;4.30;;;2.80;;
14760;SDS011;7472;45.396;5.272;2022-10-16T09:11:21;4.10;;;2.70;;
14760;SDS011;7472;45.396;5.272;2022-10-16T09:13:51;6.70;;;3.08;;
14760;SDS011;7472;45.396;5.272;2022-10-16T09:16:22;3.50;;;2.95;;
14760;SDS011;7472;45.396;5.272;2022-10-16T09:18:52;3.35;;;3.05;;
14760;SDS011;7472;45.396;5.272;2022-10-16T09:21:21;6.18;;;3.30;;
14760;SDS011;7472;45.396;5.272;2022-10-16T09:23:51;9.52;;;3.05;;
14760;SDS011;7472;45.396;5.272;2022-10-16T09:26:19;4.32;;;2.60;;
14760;SDS011;7472;45.396;5.272;2022-10-16T09:28:47;3.35;;;2.47;;
14760;SDS011;7472;45.396;5.272;2022-10-16T09:31:18;5.07;;;2.40;;
14760;SDS011;7472;45.396;5.272;2022-10-16T09:33:47;4.18;;;2.20;;
14760;SDS011;7472;45.396;5.272;2022-10-16T09:36:15;3.30;;;2.08;;
14760;SDS011;7472;45.396;5.272;2022-10-16T09:38:42;4.32;;;2.38;;
14760;SDS011;7472;45.396;5.272;2022-10-16T09:41:15;4.82;;;2.00;;
14760;SDS011;7472;45.396;5.272;2022-10-16T09:43:46;6.82;;;2.30;;
14760;SDS011;7472;45.396;5.272;2022-10-16T09:46:21;3.60;;;1.92;;
14760;SDS011;7472;45.396;5.272;2022-10-16T09:48:49;2.67;;;1.80;;
14760;SDS011;7472;45.396;5.272;2022-10-16T09:51:18;3.85;;;1.90;;
14760;SDS011;7472;45.396;5.272;2022-10-16T09:53:47;2.95;;;1.60;;
14760;SDS011;7472;45.396;5.272;2022-10-16T09:56:22;3.17;;;1.88;;
14760;SDS011;7472;45.396;5.272;2022-10-16T09:58:50;3.05;;;1.95;;
14760;SDS011;7472;45.396;5.272;2022-10-16T10:01:18;3.40;;;2.20;;
14760;SDS011;7472;45.396;5.272;2022-10-16T10:03:46;4.07;;;1.67;;
14760;SDS011;7472;45.396;5.272;2022-10-16T10:06:19;2.78;;;1.77;;
14760;SDS011;7472;45.396;5.272;2022-10-16T10:08:55;3.03;;;2.15;;
14760;SDS011;7472;45.396;5.272;2022-10-16T10:11:40;5.28;;;2.47;;
14760;SDS011;7472;45.396;5.272;2022-10-16T10:14:19;4.25;;;1.85;;
14760;SDS011;7472;45.396;5.272;2022-10-16T10:16:47;3.60;;;2.00;;
14760;SDS011;7472;45.396;5.272;2022-10-16T10:19:15;4.30;;;2.45;;
14760;SDS011;7472;45.396;5.272;2022-10-16T10:21:43;4.47;;;2.22;;
14760;SDS011;7472;45.396;5.272;2022-10-16T10:24:11;3.33;;;2.10;;
14760;SDS011;7472;45.396;5.272;2022-10-16T10:26:41;3.67;;;1.98;;
14760;SDS011;7472;45.396;5.272;2022-10-16T10:29:12;6.88;;;2.10;;
14760;SDS011;7472;45.396;5.272;2022-10-16T10:31:45;2.58;;;2.20;;
14760;SDS011;7472;45.396;5.272;2022-10-16T10:34:19;3.55;;;2.28;;
14760;SDS011;7472;45.396;5.272;2022-10-16T10:36:52;8.10;;;2.20;;
14760;SDS011;7472;45.396;5.272;2022-10-16T10:39:22;4.22;;;2.22;;
14760;SDS011;7472;45.396;5.272;2022-10-16T10:44:42;4.20;;;2.00;;
14760;SDS011;7472;45.396;5.272;2022-10-16T10:47:16;3.58;;;1.70;;
14760;SDS011;7472;45.396;5.272;2022-10-16T10:49:49;2.88;;;2.15;;
14760;SDS011;7472;45.396;5.272;2022-10-16T10:52:29;7.32;;;1.98;;
14760;SDS011;7472;45.396;5.272;2022-10-16T10:55:03;3.58;;;2.08;;
14760;SDS011;7472;45.396;5.272;2022-10-16T10:57:38;4.43;;;1.90;;
14760;SDS011;7472;45.396;5.272;2022-10-16T11:00:12;3.08;;;1.80;;
14760;SDS011;7472;45.396;5.272;2022-10-16T11:02:45;3.35;;;1.83;;
14760;SDS011;7472;45.396;5.272;2022-10-16T11:05:21;4.45;;;2.40;;
14760;SDS011;7472;45.396;5.272;2022-10-16T11:07:51;4.72;;;1.70;;
14760;SDS011;7472;45.396;5.272;2022-10-16T11:10:20;4.72;;;1.92;;
14760;SDS011;7472;45.396;5.272;2022-10-16T11:12:49;3.53;;;2.08;;
14760;SDS011;7472;45.396;5.272;2022-10-16T11:15:21;2.75;;;1.80;;
14760;SDS011;7472;45.396;5.272;2022-10-16T11:17:52;2.15;;;1.85;;
14760;SDS011;7472;45.396;5.272;2022-10-16T11:20:21;3.78;;;1.83;;
14760;SDS011;7472;45.396;5.272;2022-10-16T11:22:50;4.80;;;2.03;;
14760;SDS011;7472;45.396;5.272;2022-10-16T11:25:19;7.18;;;2.00;;
14760;SDS011;7472;45.396;5.272;2022-10-16T11:27:50;2.25;;;1.95;;
14760;SDS011;7472;45.396;5.272;2022-10-16T11:30:20;4.43;;;1.92;;
14760;SDS011;7472;45.396;5.272;2022-10-16T11:32:54;3.38;;;2.20;;
14760;SDS011;7472;45.396;5.272;2022-10-16T11:35:24;4.07;;;2.08;;
14760;SDS011;7472;45.396;5.272;2022-10-16T11:37:52;2.97;;;2.20;;
14760;SDS011;7472;45.396;5.272;2022-10-16T11:40:23;3.38;;;1.90;;
14760;SDS011;7472;45.396;5.272;2022-10-16T11:42:54;4.05;;;2.13;;
14760;SDS011;7472;45.396;5.272;2022-10-16T11:45:26;4.43;;;2.42;;
14760;SDS011;7472;45.396;5.272;2022-10-16T11:48:00;3.17;;;1.85;;
14760;SDS011;7472;45.396;5.272;2022-10-16T11:50:30;4.72;;;1.90;;
14760;SDS011;7472;45.396;5.272;2022-10-16T11:53:00;5.13;;;2.03;;
14760;SDS011;7472;45.396;5.272;2022-10-16T11:55:29;3.00;;;1.90;;
14760;SDS011;7472;45.396;5.272;2022-10-16T11:58:00;4.18;;;2.30;;
14760;SDS011;7472;45.396;5.272;2022-10-16T12:00:31;3.80;;;2.05;;
14760;SDS011;7472;45.396;5.272;2022-10-16T12:03:02;4.55;;;2.05;;
14760;SDS011;7472;45.396;5.272;2022-10-16T12:05:33;5.60;;;1.83;;
14760;SDS011;7472;45.396;5.272;2022-10-16T12:08:05;3.40;;;2.30;;
14760;SDS011;7472;45.396;5.272;2022-10-16T12:10:34;3.67;;;1.60;;
14760;SDS011;7472;45.396;5.272;2022-10-16T12:13:04;2.15;;;1.77;;
14760;SDS011;7472;45.396;5.272;2022-10-16T12:15:34;5.03;;;2.55;;
14760;SDS011;7472;45.396;5.272;2022-10-16T12:18:01;3.63;;;1.92;;
14760;SDS011;7472;45.396;5.272;2022-10-16T12:20:29;3.70;;;1.90;;
14760;SDS011;7472;45.396;5.272;2022-10-16T12:22:58;3.20;;;1.55;;
14760;SDS011;7472;45.396;5.272;2022-10-16T12:25:27;2.85;;;1.92;;
14760;SDS011;7472;45.396;5.272;2022-10-16T12:27:56;2.33;;;1.40;;
14760;SDS011;7472;45.396;5.272;2022-10-16T12:30:24;3.28;;;1.90;;
14760;SDS011;7472;45.396;5.272;2022-10-16T12:32:56;3.95;;;2.13;;
14760;SDS011;7472;45.396;5.272;2022-10-16T12:35:25;3.63;;;2.10;;
14760;SDS011;7472;45.396;5.272;2022-10-16T12:37:53;4.35;;;1.95;;
14760;SDS011;7472;45.396;5.272;2022-10-16T12:40:26;3.60;;;1.77;;
14760;SDS011;7472;45.396;5.272;2022-10-16T12:42:54;3.13;;;1.85;;
14760;SDS011;7472;45.396;5.272;2022-10-16T12:45:25;1.98;;;1.67;;
14760;SDS011;7472;45.396;5.272;2022-10-16T12:47:55;5.22;;;1.60;;
14760;SDS011;7472;45.396;5.272;2022-10-16T12:50:24;4.10;;;2.10;;
14760;SDS011;7472;45.396;5.272;2022-10-16T12:52:51;3.30;;;2.10;;
14760;SDS011;7472;45.396;5.272;2022-10-16T12:55:20;4.97;;;1.75;;
14760;SDS011;7472;45.396;5.272;2022-10-16T12:57:52;1.90;;;1.73;;
14760;SDS011;7472;45.396;5.272;2022-10-16T13:00:24;3.38;;;2.08;;
14760;SDS011;7472;45.396;5.272;2022-10-16T13:05:51;2.50;;;2.00;;
14760;SDS011;7472;45.396;5.272;2022-10-16T13:08:25;3.45;;;2.30;;
14760;SDS011;7472;45.396;5.272;2022-10-16T13:10:59;4.55;;;2.17;;
14760;SDS011;7472;45.396;5.272;2022-10-16T13:13:33;5.30;;;2.10;;
14760;SDS011;7472;45.396;5.272;2022-10-16T13:16:11;2.72;;;2.20;;
14760;SDS011;7472;45.396;5.272;2022-10-16T13:18:43;4.60;;;2.20;;
14760;SDS011;7472;45.396;5.272;2022-10-16T13:21:24;5.22;;;1.85;;
14760;SDS011;7472;45.396;5.272;2022-10-16T13:23:56;4.75;;;2.08;;
14760;SDS011;7472;45.396;5.272;2022-10-16T13:26:35;3.05;;;1.95;;
14760;SDS011;7472;45.396;5.272;2022-10-16T13:29:06;2.20;;;2.00;;
14760;SDS011;7472;45.396;5.272;2022-10-16T13:31:50;2.58;;;1.98;;
14760;SDS011;7472;45.396;5.272;2022-10-16T13:34:18;4.93;;;2.33;;
14760;SDS011;7472;45.396;5.272;2022-10-16T13:36:52;2.95;;;2.00;;
14760;SDS011;7472;45.396;5.272;2022-10-16T13:39:21;2.67;;;1.98;;
14760;SDS011;7472;45.396;5.272;2022-10-16T13:41:57;2.28;;;1.83;;
14760;SDS011;7472;45.396;5.272;2022-10-16T13:44:25;2.58;;;2.20;;
14760;SDS011;7472;45.396;5.272;2022-10-16T13:46:57;4.22;;;1.67;;
14760;SDS011;7472;45.396;5.272;2022-10-16T13:49:25;4.25;;;2.75;;
14760;SDS011;7472;45.396;5.272;2022-10-16T13:51:57;4.20;;;2.13;;
14760;SDS011;7472;45.396;5.272;2022-10-16T13:54:26;3.88;;;2.25;;
14760;SDS011;7472;45.396;5.272;2022-10-16T13:56:54;3.67;;;2.13;;
14760;SDS011;7472;45.396;5.272;2022-10-16T13:59:25;2.80;;;2.30;;
14760;SDS011;7472;45.396;5.272;2022-10-16T14:01:54;3.97;;;2.67;;
14760;SDS011;7472;45.396;5.272;2022-10-16T14:04:22;2.55;;;2.28;;
14760;SDS011;7472;45.396;5.272;2022-10-16T14:06:51;3.67;;;2.30;;
14760;SDS011;7472;45.396;5.272;2022-10-16T14:09:22;4.55;;;2.50;;
14760;SDS011;7472;45.396;5.272;2022-10-16T14:11:51;2.80;;;2.13;;
14760;SDS011;7472;45.396;5.272;2022-10-16T14:14:20;5.03;;;2.47;;
14760;SDS011;7472;45.396;5.272;2022-10-16T14:16:51;2.50;;;2.20;;
14760;SDS011;7472;45.396;5.272;2022-10-16T14:19:20;4.82;;;2.33;;
14760;SDS011;7472;45.396;5.272;2022-10-16T14:21:49;3.22;;;2.20;;
14760;SDS011;7472;45.396;5.272;2022-10-16T14:24:24;3.55;;;2.95;;
14760;SDS011;7472;45.396;5.272;2022-10-16T14:26:52;5.72;;;2.92;;
14760;SDS011;7472;45.396;5.272;2022-10-16T14:29:21;7.75;;;3.20;;
14760;SDS011;7472;45.396;5.272;2022-10-16T14:31:56;8.60;;;3.08;;
14760;SDS011;7472;45.396;5.272;2022-10-16T14:34:24;3.80;;;2.97;;
14760;SDS011;7472;45.396;5.272;2022-10-16T14:36:52;4.05;;;3.42;;
14760;SDS011;7472;45.396;5.272;2022-10-16T14:39:20;8.27;;;3.13;;
14760;SDS011;7472;45.396;5.272;2022-10-16T14:41:50;4.10;;;2.22;;
14760;SDS011;7472;45.396;5.272;2022-10-16T14:44:18;5.43;;;2.58;;
14760;SDS011;7472;45.396;5.272;2022-10-16T14:46:46;4.85;;;2.63;;
14760;SDS011;7472;45.396;5.272;2022-10-16T14:49:15;5.88;;;2.47;;
14760;SDS011;7472;45.396;5.272;2022-10-16T14:51:45;4.10;;;3.28;;
14760;SDS011;7472;45.396;5.272;2022-10-16T14:54:12;4.68;;;3.85;;
14760;SDS011;7472;45.396;5.272;2022-10-16T14:56:45;3.90;;;3.50;;
14760;SDS011;7472;45.396;5.272;2022-10-16T14:59:15;4.20;;;2.72;;
14760;SDS011;7472;45.396;5.272;2022-10-16T15:01:44;3.75;;;3.00;;
14760;SDS011;7472;45.396;5.272;2022-10-16T15:04:11;5.18;;;3.70;;
14760;SDS011;7472;45.396;5.272;2022-10-16T15:06:42;4.55;;;2.72;;
14760;SDS011;7472;45.396;5.272;2022-10-16T15:09:10;3.00;;;2.40;;
14760;SDS011;7472;45.396;5.272;2022-10-16T15:11:37;3.75;;;2.50;;
14760;SDS011;7472;45.396;5.272;2022-10-16T15:14:05;5.00;;;2.45;;